Tümü
Kane County Hospital Airport (Kanab, UT) UT02 Hava Durumu
There is no TAF data available at UT02 or any nearby airports.
There is no METAR data available at UT02. Showing METAR data for KKNB (3 mi G).
Yakın zamandaki KNB METAR geçmişi (UT02 verisi yok)
| Date | Time (MDT) | Flight Rules | Wind Dir. | Speed | Type | Height AGL (ft) | Visibility | Temp (°C) | Temp (°F) | Dew Point (°C) | Dew Point (°F) | Rel. Humid. | Pressure | Density Altitude | Remarks |
|---|---|---|---|---|---|---|---|---|---|---|---|---|---|---|---|
| 05-Eyl | 03:55 | VFR | 360° | kt | 10 miles | 14° | 57° | 7° | 44° | 63% | 30.15 in Hg | 5.467 ft | |||
| 05-Eyl | 03:35 | VFR | 240° | kt | 10 miles | 14° | 57° | 7° | 44° | 63% | 30.15 in Hg | 5.467 ft | |||
| 05-Eyl | 03:15 | VFR | 100° | kt | 10 miles | 14° | 57° | 6° | 42° | 58% | 30.14 in Hg | 5.477 ft | |||
| 05-Eyl | 02:55 | VFR | 180° | kt | 10 miles | 15° | 59° | 7° | 44° | 59% | 30.14 in Hg | 5.597 ft | |||
| 05-Eyl | 02:35 | VFR | 90° | kt | 10 miles | 15° | 59° | 7° | 44° | 59% | 30.14 in Hg | 5.597 ft | |||
| 05-Eyl | 02:15 | VFR | 40° | kt | 10 miles | 16° | 60° | 7° | 44° | 55% | 30.14 in Hg | 5.717 ft | |||
| 05-Eyl | 01:55 | VFR | 100° | kt | 10 miles | 16° | 60° | 7° | 44° | 55% | 30.14 in Hg | 5.717 ft | |||
| 05-Eyl | 01:35 | VFR | 40° | kt | 10 miles | 14° | 57° | 7° | 44° | 63% | 30.14 in Hg | 5.477 ft | |||
| 05-Eyl | 01:15 | VFR | 50° | kt | 10 miles | 17° | 62° | 7° | 44° | 52% | 30.14 in Hg | 5.837 ft | |||
| 05-Eyl | 00:35 | VFR | 70° | kt | 10 miles | 16° | 60° | 7° | 44° | 55% | 30.13 in Hg | 5.727 ft | |||
| 05-Eyl | 00:15 | VFR | 90° | kt | 10 miles | 17° | 62° | 5° | 41° | 45% | 30.13 in Hg | 5.847 ft | |||
| 04-Eyl | 23:55 | VFR | 120° | kt | 10 miles | 17° | 62° | 5° | 41° | 45% | 30.12 in Hg | 5.857 ft | |||
| 04-Eyl | 23:35 | VFR | 230° | kt | 10 miles | 19° | 66° | 5° | 41° | 40% | 30.12 in Hg | 6.097 ft | |||
| 04-Eyl | 23:15 | VFR | 210° | kt | 10 miles | 21° | 69° | 4° | 39° | 33% | 30.12 in Hg | 6.337 ft | |||
| 04-Eyl | 22:35 | VFR | 210° | 4 kt | 10 miles | 22° | 71° | 4° | 39° | 31% | 30.11 in Hg | 6.467 ft | |||
| 04-Eyl | 22:15 | VFR | 220° | 8 kt | 10 miles | 23° | 73° | 4° | 39° | 29% | 30.10 in Hg | 6.597 ft | |||
| 04-Eyl | 21:55 | VFR | 210° | 9 kt | 10 miles | 24° | 75° | 3° | 37° | 25% | 30.09 in Hg | 6.727 ft | |||
| 04-Eyl | 21:15 | VFR | 210° | kt | 10 miles | 22° | 71° | 3° | 37° | 29% | 30.08 in Hg | 6.497 ft | |||
| 04-Eyl | 20:55 | VFR | 230° | kt | 10 miles | 23° | 73° | 2° | 35° | 25% | 30.07 in Hg | 6.627 ft | |||
| 04-Eyl | 20:35 | VFR | 230° | 4 kt | 10 miles | 24° | 75° | 2° | 35° | 24% | 30.05 in Hg | 6.767 ft | |||
| 04-Eyl | 20:15 | VFR | 230° | 7 kt | 10 miles |
26° | 78° | 1° | 33° | 20% | 30.05 in Hg | 7.007 ft | |||
| 04-Eyl | 19:55 | VFR | 220° | 11 kt | 9 miles |
27° | 80° | 1° | 33° | 18% | 30.05 in Hg | 7.127 ft | |||
| 04-Eyl | 19:35 | VFR | 230° | 13 kt | 10 miles |
28° | 82° | 1° | 33° | 17% | 30.04 in Hg | 7.257 ft | |||
| 04-Eyl | 19:15 | VFR | 220° | 11 kt | 9 miles | 29° | 84° | 2° | 35° | 18% | 30.04 in Hg | 7.377 ft | Wind gusting to 17 KT |
Giriş
| Tarayıcınız desteklenmiyor. tarayıcınızı yükseltin |
